Time;durP1;ratioP1;P1;durP2;ratioP2;P2;SDS_P1;SDS_P2;PMS_P1;PMS_P2;Temp;Humidity;BMP_temperature;BMP_pressure;BME280_temperature;BME280_humidity;BME280_pressure;Samples;Min_cycle;Max_cycle;Signal;HPM_P1;HPM_P2
2023/12/18 00:00:13;;;;;;;6.32;3.45;;;7.40;99.90;;;8.43;100.00;102215.72;5069196;28;20067;-81
2023/12/18 00:02:39;;;;;;;7.82;3.45;;;7.40;99.90;;;8.48;100.00;102224.25;5073280;28;20510;-83
2023/12/18 00:05:07;;;;;;;5.90;3.35;;;7.40;99.90;;;8.57;100.00;102225.16;5066368;28;20131;-81
2023/12/18 00:07:32;;;;;;;5.47;3.15;;;7.40;99.90;;;8.46;100.00;102224.41;5071542;28;20516;-81
2023/12/18 00:09:58;;;;;;;6.28;3.47;;;7.30;99.90;;;8.38;100.00;102223.53;5068858;28;20144;-80
2023/12/18 00:12:24;;;;;;;5.97;2.97;;;7.30;99.90;;;8.34;100.00;102220.28;5034716;28;20036;-80
2023/12/18 00:14:49;;;;;;;5.68;2.75;;;7.20;99.90;;;8.30;100.00;102232.50;5068645;28;20025;-81
2023/12/18 00:17:15;;;;;;;6.70;3.03;;;7.20;99.90;;;8.27;100.00;102228.22;5069484;28;20040;-81
2023/12/18 00:19:41;;;;;;;4.82;2.90;;;7.10;99.90;;;8.24;100.00;102230.44;5068961;28;20029;-81
2023/12/18 00:22:07;;;;;;;7.38;2.90;;;7.10;99.90;;;8.22;100.00;102230.59;5070640;28;20345;-81
2023/12/18 00:24:32;;;;;;;6.85;2.90;;;7.00;99.90;;;8.17;100.00;102222.91;5073831;28;20043;-81
2023/12/18 00:26:58;;;;;;;6.18;3.03;;;6.90;99.90;;;8.01;100.00;102220.13;5051099;28;20110;-81
2023/12/18 00:29:24;;;;;;;6.35;3.20;;;6.80;99.90;;;7.98;100.00;102213.13;5068429;28;20044;-81
2023/12/18 00:31:49;;;;;;;4.80;3.20;;;6.80;99.90;;;7.95;100.00;102218.91;5069028;28;20040;-81
2023/12/18 00:34:15;;;;;;;5.78;3.00;;;6.70;99.90;;;7.85;100.00;102219.00;5069335;28;20038;-81
2023/12/18 00:36:42;;;;;;;7.78;3.17;;;6.70;99.90;;;7.72;100.00;102219.44;5069782;28;20082;-81
2023/12/18 00:39:08;;;;;;;6.00;3.08;;;6.60;99.90;;;7.72;100.00;102218.59;5069714;28;20055;-81
2023/12/18 00:41:33;;;;;;;6.57;3.30;;;6.60;99.90;;;7.67;100.00;102231.78;5070284;28;20032;-81
2023/12/18 00:43:59;;;;;;;9.23;3.58;;;6.50;99.90;;;7.59;100.00;102228.00;5070088;28;20040;-81
2023/12/18 00:46:25;;;;;;;6.20;3.30;;;6.60;99.90;;;7.66;100.00;102230.06;5071160;28;20410;-81
2023/12/18 00:48:51;;;;;;;6.22;3.33;;;6.60;99.90;;;7.57;100.00;102232.75;5069445;28;20063;-81
2023/12/18 00:51:17;;;;;;;9.70;3.72;;;6.60;99.90;;;7.57;100.00;102216.44;5068454;28;20081;-81
2023/12/18 00:53:43;;;;;;;6.43;3.60;;;6.70;99.90;;;7.61;100.00;102222.41;5069303;28;20028;-81
2023/12/18 00:56:09;;;;;;;5.82;3.05;;;6.70;99.90;;;7.66;100.00;102235.50;5069572;28;20040;-81
2023/12/18 00:58:35;;;;;;;7.50;3.60;;;6.90;99.90;;;7.83;100.00;102231.91;5068835;28;20111;-79
2023/12/18 01:01:01;;;;;;;9.23;3.80;;;6.90;99.90;;;7.71;100.00;102209.56;5069146;28;20029;-79
2023/12/18 01:03:28;;;;;;;7.32;3.47;;;7.00;99.90;;;7.89;100.00;102225.81;5037831;28;20430;-81
2023/12/18 01:05:53;;;;;;;9.73;4.43;;;7.10;99.90;;;7.86;100.00;102226.16;5072514;28;20074;-81
2023/12/18 01:08:19;;;;;;;7.80;4.07;;;7.20;99.90;;;7.88;100.00;102234.97;5039966;28;20395;-81
2023/12/18 01:10:45;;;;;;;7.88;3.92;;;7.20;99.90;;;7.73;100.00;102236.59;5051306;28;20044;-81
2023/12/18 01:13:10;;;;;;;8.43;4.03;;;7.40;99.90;;;7.70;100.00;102236.91;5039302;28;20044;-81
2023/12/18 01:15:37;;;;;;;10.00;4.05;;;7.30;99.90;;;7.71;100.00;102227.75;5048152;28;20515;-81
2023/12/18 01:18:02;;;;;;;12.18;4.03;;;7.30;99.90;;;7.65;100.00;102239.22;5046572;28;20036;-81
2023/12/18 01:20:28;;;;;;;7.95;3.80;;;7.20;99.90;;;7.59;100.00;102238.03;5067832;28;20392;-81
2023/12/18 01:22:54;;;;;;;10.32;4.75;;;7.10;99.90;;;7.48;100.00;102234.53;5075526;28;20102;-81
2023/12/18 01:25:19;;;;;;;8.15;3.83;;;7.10;99.90;;;7.60;100.00;102243.28;5076450;28;20051;-81
2023/12/18 01:27:45;;;;;;;9.32;4.60;;;7.00;99.90;;;7.57;100.00;102235.44;5077589;28;20044;-82
2023/12/18 01:30:12;;;;;;;10.48;4.63;;;7.00;99.90;;;7.71;100.00;102223.16;5070793;28;20048;-81
2023/12/18 01:32:37;;;;;;;13.13;6.00;;;7.00;99.90;;;7.37;100.00;102237.50;5077275;28;20454;-81
2023/12/18 01:35:04;;;;;;;10.25;5.07;;;7.00;99.90;;;7.55;100.00;102223.91;5081371;28;20032;-81
2023/12/18 01:37:29;;;;;;;14.40;5.88;;;7.00;99.90;;;7.53;100.00;102236.78;5068474;28;20081;-81
2023/12/18 01:39:55;;;;;;;12.40;5.60;;;7.00;99.90;;;7.57;100.00;102235.44;5070062;28;20037;-81
2023/12/18 01:42:21;;;;;;;14.88;6.00;;;7.00;99.90;;;7.54;100.00;102241.19;5069317;28;20087;-82
2023/12/18 01:44:48;;;;;;;12.02;5.93;;;6.90;99.90;;;7.49;100.00;102236.22;5068703;28;20036;-81
2023/12/18 01:47:16;;;;;;;14.35;6.90;;;7.00;99.90;;;7.32;100.00;102223.56;5058353;28;20039;-81
2023/12/18 01:49:42;;;;;;;12.25;6.47;;;7.00;99.90;;;7.51;100.00;102235.22;5045033;28;20044;-81
2023/12/18 01:52:09;;;;;;;12.23;6.28;;;6.90;99.90;;;7.44;100.00;102237.75;5059675;28;20037;-81
2023/12/18 01:54:35;;;;;;;14.82;6.72;;;6.90;99.90;;;7.46;100.00;102241.97;5072966;28;20123;-81
2023/12/18 01:57:04;;;;;;;15.50;6.75;;;6.90;99.90;;;7.34;100.00;102224.25;5076032;28;20135;-81
2023/12/18 01:59:32;;;;;;;18.88;7.43;;;6.80;99.90;;;7.36;100.00;102233.09;5076008;28;20218;-82
2023/12/18 02:01:58;;;;;;;14.45;7.03;;;6.80;99.90;;;7.30;100.00;102242.69;5075185;28;20388;-81
2023/12/18 02:04:25;;;;;;;16.25;7.22;;;6.80;99.90;;;7.38;100.00;102212.06;5062046;28;20033;-81
2023/12/18 02:06:51;;;;;;;13.20;7.18;;;6.70;99.90;;;7.35;100.00;102234.09;5046678;28;20064;-81
2023/12/18 02:09:18;;;;;;;17.33;7.35;;;6.60;99.90;;;7.44;100.00;102226.88;5032129;28;20136;-81
2023/12/18 02:11:45;;;;;;;16.70;7.95;;;6.50;99.90;;;7.40;100.00;102228.19;5032754;28;20041;-81
2023/12/18 02:14:12;;;;;;;14.98;7.55;;;6.40;99.90;;;7.26;100.00;102211.44;5031818;28;20116;-81
2023/12/18 02:16:37;;;;;;;16.77;7.90;;;6.30;99.90;;;7.08;100.00;102199.75;5033618;28;20171;-81
2023/12/18 02:19:03;;;;;;;18.30;8.68;;;6.20;99.90;;;7.09;100.00;102204.16;5030320;28;20562;-80
2023/12/18 02:21:29;;;;;;;20.00;9.13;;;6.30;99.90;;;6.96;100.00;102202.69;5031178;28;20128;-80
2023/12/18 02:23:55;;;;;;;19.38;9.15;;;6.30;99.90;;;7.16;100.00;102195.25;5031702;28;20419;-80
2023/12/18 02:26:22;;;;;;;17.73;8.77;;;6.40;99.90;;;7.10;100.00;102185.03;5047133;28;20049;-81
2023/12/18 02:28:47;;;;;;;14.90;8.90;;;6.40;99.90;;;7.13;100.00;102198.28;5032791;28;20108;-80
2023/12/18 02:31:14;;;;;;;18.90;9.10;;;6.40;99.90;;;7.04;100.00;102185.66;5032252;28;20034;-80
2023/12/18 02:33:41;;;;;;;21.38;8.85;;;6.30;99.90;;;6.96;100.00;102197.28;5039605;28;20040;-79
2023/12/18 02:36:08;;;;;;;14.75;9.60;;;6.30;99.90;;;6.79;100.00;102203.53;5013822;28;20029;-79
2023/12/18 02:38:34;;;;;;;14.95;9.25;;;6.20;99.90;;;6.94;100.00;102193.88;5036493;28;20496;-79
2023/12/18 02:41:00;;;;;;;18.60;9.13;;;6.20;99.90;;;6.87;100.00;102198.19;5032648;28;20034;-79
2023/12/18 02:43:25;;;;;;;22.45;10.00;;;6.20;99.90;;;6.76;100.00;102200.13;5030841;28;20041;-80
2023/12/18 02:45:51;;;;;;;19.50;10.18;;;6.20;99.90;;;6.69;100.00;102203.59;5036396;28;20040;-79
2023/12/18 02:48:17;;;;;;;17.50;9.68;;;6.20;99.90;;;6.74;100.00;102210.28;5031287;28;20041;-79
2023/12/18 02:50:43;;;;;;;17.00;10.02;;;6.20;99.90;;;6.85;100.00;102203.78;5047182;28;20029;-79
2023/12/18 02:53:08;;;;;;;18.90;10.50;;;6.20;99.90;;;6.88;100.00;102206.19;5031201;28;20095;-78
2023/12/18 02:55:34;;;;;;;19.23;10.00;;;6.10;99.90;;;6.71;100.00;102210.59;5036558;28;20045;-79
2023/12/18 02:58:00;;;;;;;20.40;10.65;;;6.20;99.90;;;6.73;100.00;102196.84;5033854;28;20033;-79
2023/12/18 03:00:25;;;;;;;21.20;9.18;;;6.10;99.90;;;6.69;100.00;102207.16;5030141;28;20363;-79
2023/12/18 03:02:51;;;;;;;19.05;10.60;;;6.10;99.90;;;6.61;100.00;102199.78;5037997;28;20041;-80
2023/12/18 03:05:17;;;;;;;22.88;10.85;;;6.10;99.90;;;6.71;100.00;102188.88;5031991;28;20353;-79
2023/12/18 03:07:43;;;;;;;18.98;10.40;;;6.00;99.90;;;6.70;100.00;102187.19;5031333;28;20033;-79
2023/12/18 03:10:09;;;;;;;16.73;10.10;;;6.00;99.90;;;6.58;100.00;102189.25;5030982;28;20052;-79
2023/12/18 03:12:34;;;;;;;20.15;10.82;;;5.90;99.90;;;6.55;100.00;102194.13;5030131;28;20077;-79
2023/12/18 03:15:00;;;;;;;19.23;11.20;;;5.90;99.90;;;6.71;100.00;102198.88;5041352;28;20083;-79
2023/12/18 03:17:26;;;;;;;18.50;11.52;;;5.90;99.90;;;6.70;100.00;102195.31;5028480;28;20449;-80
2023/12/18 03:19:51;;;;;;;23.42;12.15;;;5.90;99.90;;;6.72;100.00;102192.44;5037262;28;20048;-79
2023/12/18 03:22:17;;;;;;;22.42;11.88;;;5.90;99.90;;;6.65;100.00;102194.06;5019513;28;20048;-79
2023/12/18 03:24:43;;;;;;;24.48;11.73;;;5.90;99.90;;;6.70;100.00;102181.75;5040051;28;20032;-79
2023/12/18 03:27:09;;;;;;;22.45;13.23;;;6.00;99.90;;;6.62;100.00;102187.94;5008857;28;20378;-80
2023/12/18 03:29:35;;;;;;;17.85;11.32;;;6.10;99.90;;;6.88;100.00;102187.19;5027561;28;20157;-79
2023/12/18 03:32:02;;;;;;;23.20;12.15;;;6.10;99.90;;;6.81;100.00;102190.66;5035365;28;20045;-79
2023/12/18 03:34:28;;;;;;;20.50;11.90;;;6.10;99.90;;;6.77;100.00;102190.13;5033511;28;20040;-79
2023/12/18 03:36:54;;;;;;;21.52;11.93;;;6.10;99.90;;;6.76;100.00;102202.84;5030427;28;20148;-80
2023/12/18 03:39:19;;;;;;;22.10;11.68;;;6.10;99.90;;;6.81;100.00;102196.97;5030897;28;20058;-80
2023/12/18 03:41:45;;;;;;;19.13;12.02;;;6.10;99.90;;;6.71;100.00;102180.75;5030601;28;20045;-80
2023/12/18 03:44:11;;;;;;;20.50;12.35;;;6.20;99.90;;;6.78;100.00;102189.13;5043121;28;20060;-79
2023/12/18 03:46:36;;;;;;;19.05;12.05;;;6.20;99.90;;;6.82;100.00;102178.81;5034545;28;20124;-79
2023/12/18 03:49:02;;;;;;;19.13;12.02;;;6.20;99.90;;;6.75;100.00;102179.44;5031426;28;20140;-79
2023/12/18 03:51:28;;;;;;;20.88;12.00;;;6.20;99.90;;;6.54;100.00;102177.00;5032137;28;20039;-80
2023/12/18 03:53:53;;;;;;;20.92;12.10;;;6.20;99.90;;;6.75;100.00;102174.00;5030221;28;20037;-79
2023/12/18 03:56:19;;;;;;;24.10;12.80;;;6.30;99.90;;;6.75;100.00;102170.41;5024309;28;20126;-79
2023/12/18 03:58:45;;;;;;;21.00;11.85;;;6.30;99.90;;;6.79;100.00;102168.25;5035076;28;20048;-79
2023/12/18 04:01:10;;;;;;;20.80;11.63;;;6.20;99.90;;;6.87;100.00;102176.47;5030465;28;20045;-80
2023/12/18 04:03:37;;;;;;;19.05;12.30;;;6.30;99.90;;;6.96;100.00;102170.13;5019107;28;20523;-79
2023/12/18 04:06:08;;;;;;;21.77;12.35;;;6.20;99.90;;;6.88;100.00;102170.03;5011096;28;20048;-80
2023/12/18 04:08:33;;;;;;;23.13;12.90;;;6.20;99.90;;;6.74;100.00;102156.03;5025989;28;20064;-79
2023/12/18 04:10:59;;;;;;;20.17;11.90;;;6.20;99.90;;;6.71;100.00;102169.91;5019085;28;20461;-79
2023/12/18 04:13:25;;;;;;;19.20;12.02;;;6.10;99.90;;;6.74;100.00;102176.84;5031211;28;20087;-79
2023/12/18 04:15:51;;;;;;;18.70;12.15;;;6.10;99.90;;;6.67;100.00;102176.63;5029483;28;20442;-80
2023/12/18 04:18:16;;;;;;;19.90;11.95;;;6.00;99.90;;;6.68;100.00;102175.63;5029598;28;20524;-79
2023/12/18 04:20:42;;;;;;;18.00;12.13;;;6.00;99.90;;;6.52;100.00;102157.34;5029783;28;20033;-79
2023/12/18 04:23:08;;;;;;;19.80;12.25;;;5.90;99.90;;;6.59;100.00;102165.69;5025333;28;20043;-79
2023/12/18 04:25:34;;;;;;;22.50;12.85;;;5.80;99.90;;;6.47;100.00;102168.63;5036466;28;20148;-79
2023/12/18 04:28:00;;;;;;;20.23;12.05;;;5.90;99.90;;;6.43;100.00;102159.09;5037760;28;20073;-79
2023/12/18 04:30:25;;;;;;;20.85;12.98;;;5.80;99.90;;;6.39;100.00;102168.53;5033937;28;20095;-79
2023/12/18 04:32:51;;;;;;;22.40;13.48;;;5.90;99.90;;;6.33;100.00;102180.84;5029421;28;20029;-79
2023/12/18 04:35:17;;;;;;;23.35;12.65;;;5.80;99.90;;;6.42;100.00;102175.50;5014202;28;20042;-79
2023/12/18 04:37:42;;;;;;;23.52;13.57;;;5.80;99.90;;;6.33;100.00;102186.25;5029261;28;20037;-79
2023/12/18 04:40:10;;;;;;;21.35;12.75;;;5.80;99.90;;;6.58;100.00;102185.69;5029585;28;20481;-79
2023/12/18 04:42:35;;;;;;;22.38;12.55;;;5.80;99.90;;;6.56;100.00;102168.72;5029726;28;20039;-79
2023/12/18 04:45:01;;;;;;;25.05;13.13;;;5.90;99.90;;;6.62;100.00;102187.06;5012123;28;20041;-78
2023/12/18 04:47:27;;;;;;;20.17;12.98;;;6.00;99.90;;;6.69;100.00;102165.63;5029555;28;20429;-79
2023/12/18 04:49:52;;;;;;;19.65;12.23;;;6.00;99.90;;;6.80;100.00;102181.69;5028777;28;20036;-79
2023/12/18 04:52:18;;;;;;;23.38;12.85;;;6.10;99.90;;;6.81;100.00;102169.81;5028795;28;20049;-79
2023/12/18 04:54:44;;;;;;;24.00;11.93;;;6.10;99.90;;;6.80;100.00;102175.41;5012870;28;20041;-79
2023/12/18 04:57:09;;;;;;;18.83;11.80;;;6.10;99.90;;;6.87;100.00;102187.31;5026605;28;20482;-79
2023/12/18 04:59:35;;;;;;;22.13;11.80;;;6.20;99.90;;;6.74;100.00;102177.72;5031957;28;20109;-78
2023/12/18 05:02:01;;;;;;;19.20;11.75;;;6.20;99.90;;;6.83;100.00;102194.06;5022368;28;20037;-80
2023/12/18 05:04:26;;;;;;;14.93;9.77;;;6.20;99.90;;;6.63;100.00;102196.94;5053252;28;20048;-77
2023/12/18 05:06:52;;;;;;;17.17;10.52;;;6.20;99.90;;;6.75;100.00;102195.69;5036766;28;20419;-78
2023/12/18 05:09:18;;;;;;;18.58;10.40;;;6.20;99.90;;;6.73;100.00;102200.44;5070139;28;20033;-78
2023/12/18 05:11:44;;;;;;;18.73;9.73;;;6.20;99.90;;;6.66;100.00;102207.47;5068783;28;20067;-78
2023/12/18 05:14:09;;;;;;;17.63;9.82;;;6.10;99.90;;;6.75;100.00;102186.69;5069554;28;20073;-78
2023/12/18 05:16:35;;;;;;;15.50;10.25;;;6.10;99.90;;;6.75;100.00;102179.44;5051317;28;20071;-78
2023/12/18 05:19:01;;;;;;;21.02;10.98;;;6.10;99.90;;;6.57;100.00;102173.13;5068636;28;20059;-78
2023/12/18 05:21:26;;;;;;;17.92;10.25;;;6.10;99.90;;;6.58;100.00;102196.53;5041390;28;20043;-78
2023/12/18 05:23:54;;;;;;;16.88;10.82;;;6.10;99.90;;;6.60;100.00;102170.09;5070156;28;20041;-78
2023/12/18 05:26:19;;;;;;;18.75;10.20;;;6.10;99.90;;;6.59;100.00;102181.94;5073823;28;20037;-78
2023/12/18 05:28:45;;;;;;;18.88;10.52;;;6.10;99.90;;;6.62;100.00;102184.34;5077489;28;20094;-79
2023/12/18 05:31:11;;;;;;;20.75;11.38;;;6.10;99.90;;;6.74;100.00;102188.56;5080862;28;20032;-78
2023/12/18 05:33:37;;;;;;;17.95;11.40;;;6.00;99.90;;;6.61;100.00;102172.66;5073319;28;20032;-79
2023/12/18 05:36:03;;;;;;;19.17;10.48;;;6.10;99.90;;;6.45;100.00;102175.19;5072312;28;20091;-80
2023/12/18 05:38:29;;;;;;;21.70;11.23;;;6.10;99.90;;;6.60;100.00;102176.38;5073293;28;20036;-79
2023/12/18 05:40:54;;;;;;;18.73;11.30;;;6.10;99.90;;;6.71;100.00;102177.16;5078737;28;20032;-79
2023/12/18 05:43:20;;;;;;;19.02;11.65;;;6.10;99.90;;;6.52;100.00;102168.19;5074593;28;20040;-80
2023/12/18 05:45:46;;;;;;;21.88;11.57;;;6.10;99.90;;;6.61;100.00;102198.91;5072645;28;20097;-79
2023/12/18 05:48:12;;;;;;;24.33;11.38;;;6.10;99.90;;;6.51;100.00;102176.44;5072221;28;20040;-79
2023/12/18 05:50:37;;;;;;;22.77;12.60;;;6.10;99.90;;;6.53;100.00;102172.59;5072356;28;20036;-79
2023/12/18 05:53:03;;;;;;;20.17;10.57;;;6.10;99.90;;;6.60;100.00;102192.66;5038597;28;20117;-79
2023/12/18 05:55:29;;;;;;;20.45;12.32;;;6.10;99.90;;;6.72;100.00;102187.88;5072131;28;20490;-79
2023/12/18 05:57:55;;;;;;;21.38;10.63;;;6.10;99.90;;;6.64;100.00;102185.09;5043896;28;20048;-79
2023/12/18 06:00:21;;;;;;;18.38;10.45;;;6.10;99.90;;;6.73;100.00;102191.44;5037544;28;20064;-79
2023/12/18 06:02:48;;;;;;;21.60;10.95;;;6.10;99.90;;;6.80;100.00;102188.97;5026666;28;20040;-80
2023/12/18 06:05:13;;;;;;;18.10;10.75;;;6.20;99.90;;;6.78;100.00;102177.41;5020207;28;20045;-81
2023/12/18 06:07:41;;;;;;;21.63;10.73;;;6.10;99.90;;;6.87;100.00;102198.19;5037122;28;20048;-82
2023/12/18 06:10:08;;;;;;;18.77;11.03;;;6.10;99.90;;;6.81;100.00;102182.53;5046061;28;20207;-80
2023/12/18 06:12:34;;;;;;;18.77;10.50;;;6.20;99.90;;;6.62;100.00;102184.34;5031679;28;20037;-80
2023/12/18 06:15:00;;;;;;;20.38;11.82;;;6.10;99.90;;;6.79;100.00;102198.09;5016711;28;20064;-81
2023/12/18 06:17:26;;;;;;;17.70;11.23;;;6.10;99.90;;;6.84;100.00;102202.06;5042159;28;20037;-79
2023/12/18 06:19:51;;;;;;;20.98;11.27;;;6.10;99.90;;;6.99;100.00;102205.09;5034071;28;20042;-80
2023/12/18 06:22:17;;;;;;;22.27;10.32;;;6.10;99.90;;;6.95;100.00;102189.28;5045876;28;20049;-81
2023/12/18 06:24:43;;;;;;;20.95;11.10;;;6.10;99.90;;;6.90;100.00;102209.59;5005301;28;20087;-81
2023/12/18 06:27:09;;;;;;;19.20;10.05;;;6.10;99.90;;;6.72;100.00;102197.84;5034712;28;20049;-81
2023/12/18 06:29:34;;;;;;;20.40;11.35;;;6.10;99.90;;;6.78;100.00;102201.81;5034906;28;20100;-81
2023/12/18 06:32:00;;;;;;;17.00;10.13;;;6.20;99.90;;;6.73;100.00;102218.53;5032079;28;20484;-81
2023/12/18 06:34:26;;;;;;;18.52;10.73;;;6.20;99.90;;;6.92;100.00;102225.72;5033360;28;20042;-81
2023/12/18 06:36:51;;;;;;;18.42;10.60;;;6.20;99.90;;;6.84;100.00;102207.50;5030597;28;20040;-82
2023/12/18 06:39:17;;;;;;;15.63;9.85;;;6.20;99.90;;;6.98;100.00;102229.66;5031110;28;20593;-82
2023/12/18 06:41:43;;;;;;;17.95;10.80;;;6.20;99.90;;;6.91;100.00;102233.00;5005904;28;20140;-80
2023/12/18 06:44:09;;;;;;;17.70;10.73;;;6.20;99.90;;;6.84;100.00;102229.19;5034326;28;20505;-80
2023/12/18 06:46:35;;;;;;;19.90;10.55;;;6.20;99.90;;;6.88;100.00;102225.16;5033094;28;20037;-79
2023/12/18 06:49:02;;;;;;;16.20;10.00;;;6.20;99.90;;;6.79;100.00;102217.09;5032780;28;20048;-80
2023/12/18 06:51:28;;;;;;;18.55;10.02;;;6.20;99.90;;;6.74;100.00;102215.69;5042210;28;20037;-81
2023/12/18 06:53:53;;;;;;;17.40;9.77;;;6.20;99.90;;;6.75;100.00;102190.28;5038352;28;20033;-81
2023/12/18 06:56:19;;;;;;;17.73;9.68;;;6.20;99.90;;;6.57;100.00;102203.81;5031306;28;20435;-81
2023/12/18 06:58:45;;;;;;;19.30;10.80;;;6.20;99.90;;;6.73;100.00;102211.28;5031609;28;20045;-80
2023/12/18 07:01:13;;;;;;;15.57;9.95;;;6.20;99.90;;;6.88;100.00;102211.59;5028959;28;20040;-80
2023/12/18 07:03:39;;;;;;;18.60;11.00;;;6.20;99.90;;;6.89;100.00;102216.03;5040936;28;20048;-81
2023/12/18 07:06:06;;;;;;;19.90;10.70;;;6.20;99.90;;;6.79;100.00;102217.97;5067848;28;20051;-81
2023/12/18 07:08:32;;;;;;;18.80;10.30;;;6.20;99.90;;;6.91;100.00;102234.88;5046693;28;20028;-81
2023/12/18 07:10:57;;;;;;;17.10;11.02;;;6.20;99.90;;;6.88;100.00;102233.31;5067886;28;20036;-80
2023/12/18 07:13:26;;;;;;;20.48;10.50;;;6.20;99.90;;;6.92;100.00;102223.00;5070418;28;20032;-80
2023/12/18 07:15:52;;;;;;;18.42;10.80;;;6.20;99.90;;;6.85;100.00;102209.19;5066664;28;20036;-80
2023/12/18 07:18:17;;;;;;;20.77;10.88;;;6.20;99.90;;;6.94;100.00;102214.69;5032366;28;20043;-80
2023/12/18 07:20:44;;;;;;;17.30;10.43;;;6.20;99.90;;;6.73;100.00;102194.13;5039752;28;20033;-81
2023/12/18 07:23:11;;;;;;;17.65;10.38;;;6.20;99.90;;;6.89;100.00;102209.72;5067863;28;20044;-81
2023/12/18 07:25:37;;;;;;;20.25;10.43;;;6.20;99.90;;;6.78;100.00;102216.25;5069092;28;20031;-81
2023/12/18 07:28:07;;;;;;;20.38;10.88;;;6.20;99.90;;;6.78;100.00;102204.53;5076403;28;20491;-81
2023/12/18 07:30:33;;;;;;;18.90;10.45;;;6.20;99.90;;;6.93;100.00;102207.56;5057909;28;20091;-80
2023/12/18 07:32:59;;;;;;;20.08;10.55;;;6.20;99.90;;;6.78;100.00;102208.13;5074769;28;20480;-82
2023/12/18 07:35:25;;;;;;;19.30;10.57;;;6.20;99.90;;;6.80;100.00;102216.97;5065314;28;20051;-83
2023/12/18 07:37:51;;;;;;;15.95;10.20;;;6.20;99.90;;;6.65;100.00;102213.91;5077463;28;20048;-83
2023/12/18 07:40:17;;;;;;;18.20;10.85;;;6.20;99.90;;;6.84;100.00;102220.19;5040116;28;20074;-81
2023/12/18 07:42:43;;;;;;;18.80;10.18;;;6.20;99.90;;;6.87;100.00;102220.75;5054152;28;20466;-85
2023/12/18 07:45:09;;;;;;;17.08;11.05;;;6.30;99.90;;;6.86;100.00;102220.88;5071000;28;20542;-82
2023/12/18 07:47:37;;;;;;;17.65;10.05;;;6.30;99.90;;;7.02;100.00;102231.94;5066431;28;20043;-82
2023/12/18 07:50:07;;;;;;;19.75;10.82;;;6.30;99.90;;;6.86;100.00;102223.59;5071174;28;20637;-83
2023/12/18 07:52:34;;;;;;;19.42;11.43;;;6.30;99.90;;;6.90;100.00;102241.31;5040505;28;20040;-82
2023/12/18 07:55:00;;;;;;;16.88;10.25;;;6.30;99.90;;;7.00;100.00;102236.66;5070248;28;20040;-80
2023/12/18 07:57:26;;;;;;;19.63;11.07;;;6.30;99.90;;;6.94;100.00;102241.84;5070085;28;20056;-80
2023/12/18 07:59:54;;;;;;;22.02;11.02;;;6.30;99.90;;;6.94;100.00;102236.41;5074703;28;20024;-80
2023/12/18 08:02:19;;;;;;;17.75;10.70;;;6.30;99.90;;;6.92;100.00;102231.16;5066407;28;20472;-83
2023/12/18 08:04:45;;;;;;;17.02;10.55;;;6.30;99.90;;;6.81;100.00;102231.34;5072403;28;20119;-82
2023/12/18 08:07:11;;;;;;;19.33;10.70;;;6.30;99.90;;;6.90;100.00;102230.47;5043468;28;20048;-80
2023/12/18 08:09:36;;;;;;;22.52;11.18;;;6.30;99.90;;;6.92;100.00;102239.28;5071411;28;20032;-81
2023/12/18 08:12:02;;;;;;;23.92;12.00;;;6.30;99.90;;;6.89;100.00;102232.31;5071269;28;20041;-80
2023/12/18 08:14:28;;;;;;;19.23;11.20;;;6.30;99.90;;;6.84;100.00;102209.34;5042775;28;20162;-81
2023/12/18 08:16:54;;;;;;;17.77;10.93;;;6.30;99.90;;;6.82;100.00;102225.78;5071058;28;20040;-81
2023/12/18 08:19:20;;;;;;;20.80;11.95;;;6.30;99.90;;;6.81;100.00;102205.09;5069751;28;20044;-81
2023/12/18 08:21:45;;;;;;;19.95;11.52;;;6.30;99.90;;;6.83;100.00;102215.78;5040450;28;20037;-81
2023/12/18 08:24:11;;;;;;;17.52;11.23;;;6.30;99.90;;;6.96;100.00;102208.13;5035759;28;20079;-82
2023/12/18 08:26:37;;;;;;;18.95;11.75;;;6.30;99.90;;;6.85;100.00;102219.19;5047533;28;20360;-82
2023/12/18 08:29:04;;;;;;;20.20;12.75;;;6.30;99.90;;;6.90;100.00;102206.03;5071084;28;20037;-82
2023/12/18 08:31:30;;;;;;;20.60;11.77;;;6.30;99.90;;;6.95;100.00;102217.28;5065513;28;20555;-81
2023/12/18 08:33:56;;;;;;;17.77;11.85;;;6.30;99.90;;;7.01;100.00;102211.22;5073187;28;20036;-82
2023/12/18 08:36:22;;;;;;;20.13;11.75;;;6.40;99.90;;;6.91;100.00;102202.31;5066018;28;20049;-83
2023/12/18 08:38:47;;;;;;;21.90;12.25;;;6.30;99.90;;;6.91;100.00;102205.03;5059702;28;20486;-85
2023/12/18 08:41:13;;;;;;;21.83;12.13;;;6.30;99.90;;;6.76;100.00;102173.00;5075839;28;20045;-83
2023/12/18 08:43:39;;;;;;;20.88;11.90;;;6.40;99.90;;;6.95;100.00;102203.72;5046264;28;20040;-83
2023/12/18 08:46:05;;;;;;;20.48;12.55;;;6.40;99.90;;;7.00;100.00;102200.50;5041171;28;20040;-84
2023/12/18 08:48:31;;;;;;;16.80;11.20;;;6.40;99.90;;;7.07;100.00;102201.63;5072034;28;20040;-82
2023/12/18 08:50:57;;;;;;;20.02;11.55;;;6.40;99.90;;;6.95;100.00;102217.28;5077287;28;20102;-83
2023/12/18 08:53:22;;;;;;;19.80;11.55;;;6.40;99.90;;;7.12;100.00;102190.28;5042818;28;20050;-81
2023/12/18 08:55:48;;;;;;;24.10;12.30;;;6.40;99.90;;;7.16;100.00;102200.66;5073437;28;20051;-80
2023/12/18 08:58:14;;;;;;;22.65;12.57;;;6.50;99.90;;;6.95;100.00;102195.56;5072355;28;20032;-82
2023/12/18 09:00:40;;;;;;;21.88;13.05;;;6.40;99.90;;;7.04;100.00;102194.63;5054369;28;20033;-85
2023/12/18 09:03:06;;;;;;;24.42;13.48;;;6.40;99.90;;;6.92;100.00;102193.16;5046457;28;20147;-83
2023/12/18 09:05:32;;;;;;;23.00;14.90;;;6.40;99.90;;;6.84;100.00;102174.06;5071234;28;20033;-83
2023/12/18 09:07:57;;;;;;;26.27;14.40;;;6.30;99.90;;;6.84;100.00;102177.66;5073747;28;20052;-82
2023/12/18 09:10:24;;;;;;;25.45;14.25;;;6.30;99.90;;;6.86;100.00;102177.47;5069268;28;20041;-83
2023/12/18 09:12:52;;;;;;;25.55;14.60;;;6.30;99.90;;;6.89;100.00;102186.19;5072604;28;20044;-82
2023/12/18 09:15:18;;;;;;;26.63;13.75;;;6.30;99.90;;;6.99;100.00;102187.94;5070130;28;20866;-82
2023/12/18 09:17:45;;;;;;;21.75;13.93;;;6.30;99.90;;;6.87;100.00;102181.91;5074435;28;20039;-81
2023/12/18 09:20:12;;;;;;;25.40;13.52;;;6.30;99.90;;;6.95;100.00;102179.28;5070022;28;20033;-81
2023/12/18 09:22:37;;;;;;;22.60;13.90;;;6.30;99.90;;;7.05;100.00;102176.50;5059003;28;20035;-81
2023/12/18 09:25:04;;;;;;;29.58;14.32;;;6.40;99.90;;;6.84;100.00;102184.94;5070393;28;20040;-82
2023/12/18 09:27:31;;;;;;;26.45;14.25;;;6.40;99.90;;;6.91;100.00;102184.16;5042757;28;20040;-81
2023/12/18 09:29:58;;;;;;;22.70;13.88;;;6.40;99.90;;;7.02;100.00;102174.06;5070076;28;20032;-80
2023/12/18 09:32:24;;;;;;;24.60;13.25;;;6.40;99.90;;;6.98;100.00;102183.53;5056464;28;20127;-81
2023/12/18 09:34:49;;;;;;;22.27;13.88;;;6.40;99.90;;;6.79;100.00;102168.25;5072619;28;20111;-80
2023/12/18 09:37:15;;;;;;;22.90;13.60;;;6.40;99.90;;;6.77;100.00;102171.16;5082320;28;20040;-80
2023/12/18 09:39:42;;;;;;;24.55;13.88;;;6.40;99.90;;;6.90;100.00;102176.19;5086550;28;20132;-79
2023/12/18 09:42:10;;;;;;;21.75;13.30;;;6.40;99.90;;;6.81;100.00;102174.38;5075681;28;20032;-79
2023/12/18 09:44:37;;;;;;;23.50;13.00;;;6.40;99.90;;;6.95;100.00;102179.28;5063905;28;20408;-78
2023/12/18 09:47:04;;;;;;;24.40;13.85;;;6.40;99.90;;;6.93;100.00;102180.44;5074122;28;20052;-78
2023/12/18 09:49:31;;;;;;;24.60;13.80;;;6.40;99.90;;;7.01;100.00;102164.22;5054268;28;20036;-78
2023/12/18 09:52:04;;;;;;;23.90;13.40;;;6.40;99.90;;;6.93;100.00;102170.44;5073586;28;20044;-80
2023/12/18 09:54:31;;;;;;;24.45;13.05;;;6.50;99.90;;;7.02;100.00;102160.50;5072456;28;20556;-80
2023/12/18 09:57:00;;;;;;;25.00;12.97;;;6.50;99.90;;;7.02;100.00;102161.38;5073056;28;20408;-79
2023/12/18 09:59:26;;;;;;;22.60;12.60;;;6.50;99.90;;;7.02;100.00;102157.78;5072941;28;20297;-77
2023/12/18 10:01:54;;;;;;;19.65;11.63;;;6.50;99.90;;;7.01;100.00;102167.81;5070384;28;20047;-79